sensor_id;sensor_type;location;lat;lon;timestamp;P1;durP1;ratioP1;P2;durP2;ratioP2
74042;SDS011;62384;53.600;10.040;2022-07-25T11:04:44;7.82;;;4.50;;
74042;SDS011;62384;53.600;10.040;2022-07-25T11:07:13;4.47;;;3.63;;
74042;SDS011;62384;53.600;10.040;2022-07-25T11:09:41;8.48;;;4.30;;
74042;SDS011;62384;53.600;10.040;2022-07-25T11:12:08;8.95;;;4.10;;
74042;SDS011;62384;53.600;10.040;2022-07-25T11:14:38;9.65;;;4.40;;
74042;SDS011;62384;53.600;10.040;2022-07-25T11:17:12;7.82;;;4.63;;
74042;SDS011;62384;53.600;10.040;2022-07-25T11:19:40;8.25;;;4.70;;
74042;SDS011;62384;53.600;10.040;2022-07-25T11:22:07;6.57;;;4.03;;
74042;SDS011;62384;53.600;10.040;2022-07-25T11:24:37;7.10;;;4.30;;
74042;SDS011;62384;53.600;10.040;2022-07-25T11:27:07;7.10;;;4.13;;
74042;SDS011;62384;53.600;10.040;2022-07-25T11:29:33;9.50;;;4.82;;
74042;SDS011;62384;53.600;10.040;2022-07-25T11:32:04;6.22;;;4.03;;
74042;SDS011;62384;53.600;10.040;2022-07-25T11:34:32;6.97;;;3.95;;
74042;SDS011;62384;53.600;10.040;2022-07-25T11:37:00;8.88;;;4.25;;
74042;SDS011;62384;53.600;10.040;2022-07-25T11:39:28;5.63;;;3.78;;
74042;SDS011;62384;53.600;10.040;2022-07-25T11:42:03;13.63;;;4.47;;
74042;SDS011;62384;53.600;10.040;2022-07-25T11:46:57;8.20;;;3.92;;
74042;SDS011;62384;53.600;10.040;2022-07-25T11:49:22;6.97;;;4.25;;
74042;SDS011;62384;53.600;10.040;2022-07-25T11:51:48;7.50;;;4.50;;
74042;SDS011;62384;53.600;10.040;2022-07-25T11:54:13;5.10;;;3.85;;
74042;SDS011;62384;53.600;10.040;2022-07-25T11:56:40;7.60;;;4.10;;
74042;SDS011;62384;53.600;10.040;2022-07-25T11:59:05;6.22;;;3.80;;
74042;SDS011;62384;53.600;10.040;2022-07-25T12:01:35;5.18;;;3.70;;
74042;SDS011;62384;53.600;10.040;2022-07-25T12:04:12;5.47;;;3.70;;
74042;SDS011;62384;53.600;10.040;2022-07-25T12:06:40;6.72;;;4.18;;
74042;SDS011;62384;53.600;10.040;2022-07-25T12:09:13;6.25;;;4.03;;
74042;SDS011;62384;53.600;10.040;2022-07-25T12:11:48;4.57;;;4.10;;
74042;SDS011;62384;53.600;10.040;2022-07-25T12:14:14;11.02;;;4.18;;
74042;SDS011;62384;53.600;10.040;2022-07-25T12:16:40;10.48;;;3.97;;
74042;SDS011;62384;53.600;10.040;2022-07-25T12:19:08;6.40;;;4.75;;
74042;SDS011;62384;53.600;10.040;2022-07-25T12:21:42;5.30;;;3.70;;
74042;SDS011;62384;53.600;10.040;2022-07-25T12:24:08;7.15;;;4.10;;
74042;SDS011;62384;53.600;10.040;2022-07-25T12:26:33;6.33;;;3.93;;
74042;SDS011;62384;53.600;10.040;2022-07-25T12:28:59;12.98;;;4.65;;
74042;SDS011;62384;53.600;10.040;2022-07-25T12:31:24;7.68;;;3.92;;
74042;SDS011;62384;53.600;10.040;2022-07-25T12:33:52;6.35;;;4.45;;
74042;SDS011;62384;53.600;10.040;2022-07-25T12:36:17;7.72;;;4.10;;
74042;SDS011;62384;53.600;10.040;2022-07-25T12:38:43;6.47;;;4.20;;
74042;SDS011;62384;53.600;10.040;2022-07-25T12:41:08;7.53;;;4.27;;
74042;SDS011;62384;53.600;10.040;2022-07-25T12:43:33;7.95;;;4.18;;
74042;SDS011;62384;53.600;10.040;2022-07-25T12:45:58;6.13;;;4.13;;
74042;SDS011;62384;53.600;10.040;2022-07-25T12:48:24;6.97;;;4.53;;
74042;SDS011;62384;53.600;10.040;2022-07-25T12:50:50;7.22;;;4.18;;
74042;SDS011;62384;53.600;10.040;2022-07-25T12:53:15;8.52;;;4.45;;
74042;SDS011;62384;53.600;10.040;2022-07-25T12:55:40;6.65;;;3.78;;
74042;SDS011;62384;53.600;10.040;2022-07-25T12:58:06;5.50;;;4.30;;
74042;SDS011;62384;53.600;10.040;2022-07-25T13:00:31;8.13;;;4.22;;
74042;SDS011;62384;53.600;10.040;2022-07-25T13:02:56;6.72;;;4.35;;
74042;SDS011;62384;53.600;10.040;2022-07-25T13:05:22;8.45;;;4.20;;
74042;SDS011;62384;53.600;10.040;2022-07-25T13:07:49;8.38;;;4.60;;
74042;SDS011;62384;53.600;10.040;2022-07-25T13:10:15;7.43;;;4.63;;
74042;SDS011;62384;53.600;10.040;2022-07-25T13:12:41;6.00;;;4.32;;
74042;SDS011;62384;53.600;10.040;2022-07-25T13:15:07;10.32;;;4.10;;
74042;SDS011;62384;53.600;10.040;2022-07-25T13:17:33;7.90;;;4.40;;
74042;SDS011;62384;53.600;10.040;2022-07-25T13:19:58;8.10;;;4.65;;
74042;SDS011;62384;53.600;10.040;2022-07-25T13:22:24;7.60;;;4.80;;
74042;SDS011;62384;53.600;10.040;2022-07-25T13:24:50;7.20;;;4.32;;
74042;SDS011;62384;53.600;10.040;2022-07-25T13:27:19;9.65;;;4.68;;
74042;SDS011;62384;53.600;10.040;2022-07-25T13:29:45;7.97;;;4.15;;
74042;SDS011;62384;53.600;10.040;2022-07-25T13:32:11;8.18;;;4.45;;
74042;SDS011;62384;53.600;10.040;2022-07-25T13:34:37;6.38;;;4.00;;
74042;SDS011;62384;53.600;10.040;2022-07-25T13:37:03;7.78;;;4.22;;
74042;SDS011;62384;53.600;10.040;2022-07-25T13:39:28;8.23;;;4.47;;
74042;SDS011;62384;53.600;10.040;2022-07-25T13:41:54;14.75;;;4.60;;
74042;SDS011;62384;53.600;10.040;2022-07-25T13:44:19;6.85;;;4.45;;
74042;SDS011;62384;53.600;10.040;2022-07-25T13:46:44;10.23;;;4.60;;
74042;SDS011;62384;53.600;10.040;2022-07-25T13:49:13;7.05;;;4.50;;
74042;SDS011;62384;53.600;10.040;2022-07-25T13:51:39;7.75;;;4.30;;
74042;SDS011;62384;53.600;10.040;2022-07-25T13:54:04;5.80;;;3.85;;
74042;SDS011;62384;53.600;10.040;2022-07-25T13:56:29;11.13;;;4.70;;
74042;SDS011;62384;53.600;10.040;2022-07-25T13:58:55;6.20;;;4.15;;
74042;SDS011;62384;53.600;10.040;2022-07-25T14:01:21;11.48;;;4.75;;
74042;SDS011;62384;53.600;10.040;2022-07-25T14:03:46;7.00;;;4.43;;
74042;SDS011;62384;53.600;10.040;2022-07-25T14:06:11;6.00;;;4.15;;
74042;SDS011;62384;53.600;10.040;2022-07-25T14:08:39;8.10;;;4.20;;
74042;SDS011;62384;53.600;10.040;2022-07-25T14:11:05;7.57;;;4.80;;
74042;SDS011;62384;53.600;10.040;2022-07-25T14:13:32;8.98;;;5.03;;
74042;SDS011;62384;53.600;10.040;2022-07-25T14:15:58;5.90;;;4.68;;
74042;SDS011;62384;53.600;10.040;2022-07-25T14:18:23;9.90;;;5.00;;
74042;SDS011;62384;53.600;10.040;2022-07-25T14:20:48;13.38;;;6.88;;
74042;SDS011;62384;53.600;10.040;2022-07-25T14:23:15;8.95;;;6.25;;
74042;SDS011;62384;53.600;10.040;2022-07-25T14:25:40;14.90;;;6.60;;
74042;SDS011;62384;53.600;10.040;2022-07-25T14:28:06;10.85;;;5.80;;
74042;SDS011;62384;53.600;10.040;2022-07-25T14:30:31;10.95;;;5.80;;
74042;SDS011;62384;53.600;10.040;2022-07-25T14:32:56;11.82;;;6.80;;
74042;SDS011;62384;53.600;10.040;2022-07-25T14:35:22;10.05;;;7.03;;
74042;SDS011;62384;53.600;10.040;2022-07-25T14:37:47;10.00;;;6.28;;
74042;SDS011;62384;53.600;10.040;2022-07-25T14:40:12;13.23;;;6.95;;
74042;SDS011;62384;53.600;10.040;2022-07-25T14:42:38;12.57;;;5.97;;
74042;SDS011;62384;53.600;10.040;2022-07-25T14:45:05;11.60;;;5.65;;
74042;SDS011;62384;53.600;10.040;2022-07-25T14:47:32;8.40;;;4.88;;
74042;SDS011;62384;53.600;10.040;2022-07-25T14:49:57;9.00;;;4.47;;
74042;SDS011;62384;53.600;10.040;2022-07-25T14:52:22;8.82;;;5.35;;
74042;SDS011;62384;53.600;10.040;2022-07-25T14:54:49;11.18;;;4.53;;
74042;SDS011;62384;53.600;10.040;2022-07-25T14:57:14;14.98;;;5.22;;
74042;SDS011;62384;53.600;10.040;2022-07-25T14:59:39;9.63;;;4.40;;
74042;SDS011;62384;53.600;10.040;2022-07-25T15:02:05;9.32;;;4.75;;
74042;SDS011;62384;53.600;10.040;2022-07-25T15:04:30;8.68;;;4.25;;
74042;SDS011;62384;53.600;10.040;2022-07-25T15:06:55;8.93;;;4.15;;
74042;SDS011;62384;53.600;10.040;2022-07-25T15:09:21;8.70;;;3.60;;
74042;SDS011;62384;53.600;10.040;2022-07-25T15:11:46;13.75;;;3.88;;
74042;SDS011;62384;53.600;10.040;2022-07-25T15:14:12;7.07;;;3.90;;
74042;SDS011;62384;53.600;10.040;2022-07-25T15:16:38;12.15;;;2.97;;
74042;SDS011;62384;53.600;10.040;2022-07-25T15:19:03;6.50;;;3.55;;
74042;SDS011;62384;53.600;10.040;2022-07-25T15:21:32;7.30;;;3.90;;
74042;SDS011;62384;53.600;10.040;2022-07-25T15:24:01;7.75;;;3.45;;
74042;SDS011;62384;53.600;10.040;2022-07-25T15:26:26;5.35;;;2.63;;
74042;SDS011;62384;53.600;10.040;2022-07-25T15:28:52;5.10;;;2.47;;
74042;SDS011;62384;53.600;10.040;2022-07-25T15:31:17;5.15;;;2.72;;
74042;SDS011;62384;53.600;10.040;2022-07-25T15:33:44;4.63;;;2.85;;
74042;SDS011;62384;53.600;10.040;2022-07-25T15:36:10;6.93;;;2.70;;
74042;SDS011;62384;53.600;10.040;2022-07-25T15:38:35;4.63;;;2.40;;
74042;SDS011;62384;53.600;10.040;2022-07-25T15:41:01;7.18;;;3.22;;
74042;SDS011;62384;53.600;10.040;2022-07-25T15:43:27;4.55;;;3.28;;
74042;SDS011;62384;53.600;10.040;2022-07-25T15:45:52;10.60;;;3.47;;
74042;SDS011;62384;53.600;10.040;2022-07-25T15:48:18;10.00;;;4.63;;
74042;SDS011;62384;53.600;10.040;2022-07-25T15:50:44;10.23;;;3.90;;
74042;SDS011;62384;53.600;10.040;2022-07-25T15:53:11;10.80;;;5.00;;
74042;SDS011;62384;53.600;10.040;2022-07-25T15:55:37;11.80;;;3.80;;
74042;SDS011;62384;53.600;10.040;2022-07-25T15:58:03;23.40;;;5.85;;
74042;SDS011;62384;53.600;10.040;2022-07-25T16:00:30;11.40;;;5.38;;
74042;SDS011;62384;53.600;10.040;2022-07-25T16:02:55;17.17;;;5.78;;
74042;SDS011;62384;53.600;10.040;2022-07-25T16:05:21;11.05;;;5.25;;
74042;SDS011;62384;53.600;10.040;2022-07-25T16:07:46;11.02;;;5.18;;
74042;SDS011;62384;53.600;10.040;2022-07-25T16:10:12;9.63;;;6.07;;
74042;SDS011;62384;53.600;10.040;2022-07-25T16:12:37;14.57;;;5.10;;
74042;SDS011;62384;53.600;10.040;2022-07-25T16:15:03;11.68;;;4.43;;
74042;SDS011;62384;53.600;10.040;2022-07-25T16:17:29;12.18;;;5.28;;
74042;SDS011;62384;53.600;10.040;2022-07-25T16:19:55;9.32;;;4.88;;
74042;SDS011;62384;53.600;10.040;2022-07-25T16:22:21;11.40;;;4.38;;
74042;SDS011;62384;53.600;10.040;2022-07-25T16:24:46;9.77;;;4.85;;
74042;SDS011;62384;53.600;10.040;2022-07-25T16:27:11;9.98;;;4.90;;
74042;SDS011;62384;53.600;10.040;2022-07-25T16:29:37;10.80;;;5.22;;
74042;SDS011;62384;53.600;10.040;2022-07-25T16:32:03;11.10;;;5.30;;
74042;SDS011;62384;53.600;10.040;2022-07-25T16:34:29;14.85;;;5.68;;
74042;SDS011;62384;53.600;10.040;2022-07-25T16:36:54;9.48;;;4.45;;
74042;SDS011;62384;53.600;10.040;2022-07-25T16:39:20;7.53;;;4.10;;
74042;SDS011;62384;53.600;10.040;2022-07-25T16:41:46;11.70;;;4.50;;
74042;SDS011;62384;53.600;10.040;2022-07-25T16:44:12;15.77;;;5.03;;
74042;SDS011;62384;53.600;10.040;2022-07-25T16:46:37;9.73;;;4.57;;
74042;SDS011;62384;53.600;10.040;2022-07-25T16:49:03;11.65;;;4.68;;
74042;SDS011;62384;53.600;10.040;2022-07-25T16:51:28;10.20;;;5.32;;
74042;SDS011;62384;53.600;10.040;2022-07-25T16:53:53;11.02;;;4.72;;
74042;SDS011;62384;53.600;10.040;2022-07-25T16:56:19;8.40;;;4.47;;
74042;SDS011;62384;53.600;10.040;2022-07-25T16:58:44;13.30;;;5.10;;
74042;SDS011;62384;53.600;10.040;2022-07-25T17:01:10;10.82;;;4.80;;
74042;SDS011;62384;53.600;10.040;2022-07-25T17:03:36;8.43;;;4.18;;
74042;SDS011;62384;53.600;10.040;2022-07-25T17:06:02;13.48;;;5.60;;
74042;SDS011;62384;53.600;10.040;2022-07-25T17:08:27;9.95;;;4.22;;
74042;SDS011;62384;53.600;10.040;2022-07-25T17:10:55;14.23;;;4.90;;
74042;SDS011;62384;53.600;10.040;2022-07-25T17:13:21;10.60;;;4.35;;
74042;SDS011;62384;53.600;10.040;2022-07-25T17:15:46;8.40;;;4.28;;
74042;SDS011;62384;53.600;10.040;2022-07-25T17:18:11;14.85;;;4.78;;
74042;SDS011;62384;53.600;10.040;2022-07-25T17:20:38;13.73;;;4.93;;
74042;SDS011;62384;53.600;10.040;2022-07-25T17:23:04;13.38;;;4.78;;
74042;SDS011;62384;53.600;10.040;2022-07-25T17:25:29;11.60;;;3.78;;
74042;SDS011;62384;53.600;10.040;2022-07-25T17:27:55;9.55;;;2.83;;
74042;SDS011;62384;53.600;10.040;2022-07-25T17:30:20;11.80;;;3.35;;
74042;SDS011;62384;53.600;10.040;2022-07-25T17:32:45;8.48;;;3.20;;
74042;SDS011;62384;53.600;10.040;2022-07-25T17:35:11;14.18;;;3.30;;
74042;SDS011;62384;53.600;10.040;2022-07-25T17:37:36;9.00;;;3.65;;
74042;SDS011;62384;53.600;10.040;2022-07-25T17:40:02;9.98;;;3.80;;
74042;SDS011;62384;53.600;10.040;2022-07-25T17:42:27;8.15;;;3.38;;
74042;SDS011;62384;53.600;10.040;2022-07-25T17:44:53;6.57;;;3.00;;
74042;SDS011;62384;53.600;10.040;2022-07-25T17:47:18;10.10;;;3.70;;
74042;SDS011;62384;53.600;10.040;2022-07-25T17:49:43;7.45;;;3.78;;
74042;SDS011;62384;53.600;10.040;2022-07-25T17:52:10;6.88;;;2.88;;
74042;SDS011;62384;53.600;10.040;2022-07-25T17:54:36;9.63;;;3.20;;
74042;SDS011;62384;53.600;10.040;2022-07-25T17:57:04;12.13;;;4.38;;
74042;SDS011;62384;53.600;10.040;2022-07-25T17:59:30;13.23;;;3.90;;
74042;SDS011;62384;53.600;10.040;2022-07-25T18:01:55;7.82;;;3.35;;
74042;SDS011;62384;53.600;10.040;2022-07-25T18:04:20;13.43;;;3.42;;
74042;SDS011;62384;53.600;10.040;2022-07-25T18:06:47;8.13;;;3.70;;
74042;SDS011;62384;53.600;10.040;2022-07-25T18:09:12;13.90;;;4.13;;
74042;SDS011;62384;53.600;10.040;2022-07-25T18:11:38;12.90;;;3.28;;
74042;SDS011;62384;53.600;10.040;2022-07-25T18:14:04;9.10;;;3.88;;
74042;SDS011;62384;53.600;10.040;2022-07-25T18:16:29;8.13;;;3.80;;
74042;SDS011;62384;53.600;10.040;2022-07-25T18:18:55;10.23;;;4.18;;
74042;SDS011;62384;53.600;10.040;2022-07-25T18:21:20;14.15;;;4.10;;
74042;SDS011;62384;53.600;10.040;2022-07-25T18:23:46;10.82;;;4.03;;
74042;SDS011;62384;53.600;10.040;2022-07-25T18:26:12;11.98;;;3.90;;
74042;SDS011;62384;53.600;10.040;2022-07-25T18:28:37;10.50;;;3.42;;
74042;SDS011;62384;53.600;10.040;2022-07-25T18:31:02;12.27;;;3.58;;
74042;SDS011;62384;53.600;10.040;2022-07-25T18:33:28;10.95;;;3.85;;
74042;SDS011;62384;53.600;10.040;2022-07-25T18:35:53;14.48;;;3.53;;
74042;SDS011;62384;53.600;10.040;2022-07-25T18:38:19;8.48;;;2.97;;
74042;SDS011;62384;53.600;10.040;2022-07-25T18:40:44;8.55;;;3.58;;
74042;SDS011;62384;53.600;10.040;2022-07-25T18:43:09;9.90;;;3.28;;
74042;SDS011;62384;53.600;10.040;2022-07-25T18:45:36;15.05;;;3.20;;
74042;SDS011;62384;53.600;10.040;2022-07-25T18:48:03;13.05;;;3.78;;
74042;SDS011;62384;53.600;10.040;2022-07-25T18:50:29;9.23;;;3.35;;
74042;SDS011;62384;53.600;10.040;2022-07-25T18:52:55;8.25;;;3.58;;
74042;SDS011;62384;53.600;10.040;2022-07-25T18:55:21;11.60;;;3.80;;
74042;SDS011;62384;53.600;10.040;2022-07-25T18:57:47;10.43;;;3.20;;
74042;SDS011;62384;53.600;10.040;2022-07-25T19:00:13;11.05;;;3.38;;
74042;SDS011;62384;53.600;10.040;2022-07-25T19:02:39;9.43;;;5.05;;
74042;SDS011;62384;53.600;10.040;2022-07-25T19:05:05;12.50;;;3.97;;
74042;SDS011;62384;53.600;10.040;2022-07-25T19:07:32;11.13;;;4.57;;
74042;SDS011;62384;53.600;10.040;2022-07-25T19:09:58;14.73;;;3.63;;
74042;SDS011;62384;53.600;10.040;2022-07-25T19:12:23;11.07;;;3.42;;
74042;SDS011;62384;53.600;10.040;2022-07-25T19:14:50;6.78;;;3.35;;
74042;SDS011;62384;53.600;10.040;2022-07-25T19:17:16;10.63;;;3.05;;
74042;SDS011;62384;53.600;10.040;2022-07-25T19:19:41;13.75;;;3.25;;
74042;SDS011;62384;53.600;10.040;2022-07-25T19:22:08;11.77;;;3.22;;
74042;SDS011;62384;53.600;10.040;2022-07-25T19:24:33;7.68;;;3.00;;
74042;SDS011;62384;53.600;10.040;2022-07-25T19:26:59;13.80;;;3.90;;
74042;SDS011;62384;53.600;10.040;2022-07-25T19:29:24;9.18;;;3.75;;
74042;SDS011;62384;53.600;10.040;2022-07-25T19:31:50;11.50;;;3.33;;
74042;SDS011;62384;53.600;10.040;2022-07-25T19:34:16;12.88;;;3.35;;
74042;SDS011;62384;53.600;10.040;2022-07-25T19:36:42;10.95;;;3.10;;
74042;SDS011;62384;53.600;10.040;2022-07-25T19:39:10;12.90;;;3.58;;
74042;SDS011;62384;53.600;10.040;2022-07-25T19:41:36;8.38;;;3.55;;
74042;SDS011;62384;53.600;10.040;2022-07-25T19:44:02;11.60;;;3.22;;
74042;SDS011;62384;53.600;10.040;2022-07-25T19:46:28;8.90;;;2.22;;
74042;SDS011;62384;53.600;10.040;2022-07-25T19:48:58;5.75;;;2.60;;
74042;SDS011;62384;53.600;10.040;2022-07-25T19:51:24;9.82;;;2.63;;
74042;SDS011;62384;53.600;10.040;2022-07-25T19:53:50;11.55;;;2.92;;
74042;SDS011;62384;53.600;10.040;2022-07-25T19:56:15;8.52;;;2.97;;
74042;SDS011;62384;53.600;10.040;2022-07-25T19:58:40;8.63;;;3.15;;
74042;SDS011;62384;53.600;10.040;2022-07-25T20:01:06;6.03;;;3.17;;
74042;SDS011;62384;53.600;10.040;2022-07-25T20:03:31;8.30;;;2.75;;
74042;SDS011;62384;53.600;10.040;2022-07-25T20:05:56;9.02;;;2.80;;
74042;SDS011;62384;53.600;10.040;2022-07-25T20:08:22;11.38;;;3.25;;
74042;SDS011;62384;53.600;10.040;2022-07-25T20:10:47;10.50;;;2.80;;
74042;SDS011;62384;53.600;10.040;2022-07-25T20:13:12;7.90;;;2.63;;
74042;SDS011;62384;53.600;10.040;2022-07-25T20:15:38;11.82;;;3.65;;
74042;SDS011;62384;53.600;10.040;2022-07-25T20:18:03;8.68;;;3.17;;
74042;SDS011;62384;53.600;10.040;2022-07-25T20:20:29;12.05;;;3.03;;
74042;SDS011;62384;53.600;10.040;2022-07-25T20:22:54;10.18;;;3.05;;
74042;SDS011;62384;53.600;10.040;2022-07-25T20:25:19;13.65;;;3.00;;
74042;SDS011;62384;53.600;10.040;2022-07-25T20:27:45;10.70;;;3.08;;
74042;SDS011;62384;53.600;10.040;2022-07-25T20:30:13;10.93;;;2.83;;
74042;SDS011;62384;53.600;10.040;2022-07-25T20:32:40;12.15;;;4.05;;
74042;SDS011;62384;53.600;10.040;2022-07-25T20:35:06;16.02;;;3.30;;
74042;SDS011;62384;53.600;10.040;2022-07-25T20:37:31;11.30;;;3.13;;
74042;SDS011;62384;53.600;10.040;2022-07-25T20:39:56;13.00;;;3.17;;
74042;SDS011;62384;53.600;10.040;2022-07-25T20:42:22;7.45;;;3.05;;
74042;SDS011;62384;53.600;10.040;2022-07-25T20:44:47;11.75;;;3.03;;
74042;SDS011;62384;53.600;10.040;2022-07-25T20:47:12;13.15;;;2.92;;
74042;SDS011;62384;53.600;10.040;2022-07-25T20:49:39;15.20;;;3.80;;
74042;SDS011;62384;53.600;10.040;2022-07-25T20:52:06;9.43;;;3.80;;
74042;SDS011;62384;53.600;10.040;2022-07-25T20:54:32;7.53;;;3.20;;
74042;SDS011;62384;53.600;10.040;2022-07-25T20:56:58;11.32;;;3.25;;
74042;SDS011;62384;53.600;10.040;2022-07-25T20:59:23;6.60;;;2.92;;
74042;SDS011;62384;53.600;10.040;2022-07-25T21:01:50;10.25;;;3.25;;
74042;SDS011;62384;53.600;10.040;2022-07-25T21:04:15;13.40;;;3.83;;
74042;SDS011;62384;53.600;10.040;2022-07-25T21:06:41;10.55;;;3.10;;
74042;SDS011;62384;53.600;10.040;2022-07-25T21:09:07;9.80;;;3.03;;
74042;SDS011;62384;53.600;10.040;2022-07-25T21:11:34;10.43;;;3.15;;
74042;SDS011;62384;53.600;10.040;2022-07-25T21:14:03;7.00;;;3.42;;
74042;SDS011;62384;53.600;10.040;2022-07-25T21:16:29;9.70;;;3.15;;
74042;SDS011;62384;53.600;10.040;2022-07-25T21:18:54;7.47;;;3.38;;
74042;SDS011;62384;53.600;10.040;2022-07-25T21:21:22;8.85;;;3.45;;
74042;SDS011;62384;53.600;10.040;2022-07-25T21:23:48;8.13;;;3.33;;
74042;SDS011;62384;53.600;10.040;2022-07-25T21:26:14;11.00;;;3.58;;
74042;SDS011;62384;53.600;10.040;2022-07-25T21:28:39;9.43;;;3.67;;
74042;SDS011;62384;53.600;10.040;2022-07-25T21:31:06;8.35;;;3.33;;
74042;SDS011;62384;53.600;10.040;2022-07-25T21:33:31;11.52;;;3.58;;
74042;SDS011;62384;53.600;10.040;2022-07-25T21:35:56;12.20;;;3.42;;
74042;SDS011;62384;53.600;10.040;2022-07-25T21:38:22;10.38;;;3.35;;
74042;SDS011;62384;53.600;10.040;2022-07-25T21:40:47;13.40;;;3.70;;
74042;SDS011;62384;53.600;10.040;2022-07-25T21:43:12;12.48;;;3.75;;
74042;SDS011;62384;53.600;10.040;2022-07-25T21:45:37;11.32;;;4.18;;
74042;SDS011;62384;53.600;10.040;2022-07-25T21:48:03;12.50;;;3.75;;
74042;SDS011;62384;53.600;10.040;2022-07-25T21:50:29;9.18;;;3.47;;
74042;SDS011;62384;53.600;10.040;2022-07-25T21:53:06;8.27;;;3.08;;
74042;SDS011;62384;53.600;10.040;2022-07-25T21:55:32;9.65;;;3.10;;
74042;SDS011;62384;53.600;10.040;2022-07-25T21:57:58;11.70;;;3.65;;
74042;SDS011;62384;53.600;10.040;2022-07-25T22:00:24;14.02;;;3.95;;
74042;SDS011;62384;53.600;10.040;2022-07-25T22:02:49;8.10;;;3.13;;
74042;SDS011;62384;53.600;10.040;2022-07-25T22:05:15;11.07;;;3.67;;
74042;SDS011;62384;53.600;10.040;2022-07-25T22:07:41;9.25;;;3.60;;
74042;SDS011;62384;53.600;10.040;2022-07-25T22:10:08;7.50;;;4.10;;
74042;SDS011;62384;53.600;10.040;2022-07-25T22:12:35;7.72;;;3.40;;
74042;SDS011;62384;53.600;10.040;2022-07-25T22:15:02;8.75;;;3.28;;
74042;SDS011;62384;53.600;10.040;2022-07-25T22:17:28;11.45;;;3.95;;
74042;SDS011;62384;53.600;10.040;2022-07-25T22:19:54;10.85;;;3.35;;
74042;SDS011;62384;53.600;10.040;2022-07-25T22:22:19;9.88;;;3.20;;
74042;SDS011;62384;53.600;10.040;2022-07-25T22:24:44;7.00;;;3.38;;
74042;SDS011;62384;53.600;10.040;2022-07-25T22:27:10;11.82;;;3.45;;
74042;SDS011;62384;53.600;10.040;2022-07-25T22:29:35;11.98;;;3.92;;
74042;SDS011;62384;53.600;10.040;2022-07-25T22:32:01;15.07;;;4.10;;
74042;SDS011;62384;53.600;10.040;2022-07-25T22:34:26;10.50;;;3.33;;
74042;SDS011;62384;53.600;10.040;2022-07-25T22:36:51;7.97;;;3.70;;
74042;SDS011;62384;53.600;10.040;2022-07-25T22:39:16;10.73;;;3.70;;
74042;SDS011;62384;53.600;10.040;2022-07-25T22:41:42;17.45;;;4.53;;
74042;SDS011;62384;53.600;10.040;2022-07-25T22:44:07;7.88;;;3.38;;
74042;SDS011;62384;53.600;10.040;2022-07-25T22:46:33;10.05;;;3.67;;
74042;SDS011;62384;53.600;10.040;2022-07-25T22:48:59;13.75;;;3.50;;
74042;SDS011;62384;53.600;10.040;2022-07-25T22:51:24;9.00;;;3.33;;
74042;SDS011;62384;53.600;10.040;2022-07-25T22:53:50;16.90;;;3.53;;
74042;SDS011;62384;53.600;10.040;2022-07-25T22:56:16;11.80;;;3.40;;
74042;SDS011;62384;53.600;10.040;2022-07-25T22:58:41;11.90;;;3.90;;
74042;SDS011;62384;53.600;10.040;2022-07-25T23:01:07;8.95;;;3.83;;
74042;SDS011;62384;53.600;10.040;2022-07-25T23:03:33;12.68;;;3.35;;
74042;SDS011;62384;53.600;10.040;2022-07-25T23:05:59;12.32;;;3.35;;
74042;SDS011;62384;53.600;10.040;2022-07-25T23:08:25;7.85;;;2.95;;
74042;SDS011;62384;53.600;10.040;2022-07-25T23:10:50;9.85;;;3.00;;
74042;SDS011;62384;53.600;10.040;2022-07-25T23:13:16;9.07;;;3.35;;
74042;SDS011;62384;53.600;10.040;2022-07-25T23:15:41;10.40;;;3.90;;
74042;SDS011;62384;53.600;10.040;2022-07-25T23:18:06;13.02;;;4.85;;
74042;SDS011;62384;53.600;10.040;2022-07-25T23:20:32;13.82;;;3.15;;
74042;SDS011;62384;53.600;10.040;2022-07-25T23:22:57;10.43;;;3.30;;
74042;SDS011;62384;53.600;10.040;2022-07-25T23:25:23;9.05;;;2.72;;
74042;SDS011;62384;53.600;10.040;2022-07-25T23:27:48;12.05;;;3.42;;
74042;SDS011;62384;53.600;10.040;2022-07-25T23:30:14;13.13;;;2.63;;
74042;SDS011;62384;53.600;10.040;2022-07-25T23:32:41;9.73;;;2.67;;
74042;SDS011;62384;53.600;10.040;2022-07-25T23:35:07;12.77;;;3.25;;
74042;SDS011;62384;53.600;10.040;2022-07-25T23:37:33;7.28;;;2.83;;
74042;SDS011;62384;53.600;10.040;2022-07-25T23:39:58;12.10;;;3.55;;
74042;SDS011;62384;53.600;10.040;2022-07-25T23:42:24;10.05;;;3.15;;
74042;SDS011;62384;53.600;10.040;2022-07-25T23:44:49;12.57;;;3.20;;
74042;SDS011;62384;53.600;10.040;2022-07-25T23:47:14;6.70;;;2.90;;
74042;SDS011;62384;53.600;10.040;2022-07-25T23:49:40;8.20;;;3.13;;
74042;SDS011;62384;53.600;10.040;2022-07-25T23:52:05;9.00;;;3.80;;
74042;SDS011;62384;53.600;10.040;2022-07-25T23:54:30;9.27;;;3.53;;
74042;SDS011;62384;53.600;10.040;2022-07-25T23:56:59;12.25;;;3.38;;
74042;SDS011;62384;53.600;10.040;2022-07-25T23:59:25;9.23;;;3.30;;
